Time;durP1;ratioP1;P1;durP2;ratioP2;P2;SDS_P1;SDS_P2;PMS_P1;PMS_P2;Temp;Humidity;BMP_temperature;BMP_pressure;BME280_temperature;BME280_humidity;BME280_pressure;Samples;Min_cycle;Max_cycle;Signal;HPM_P1;HPM_P2
2023/03/24 00:00:14;;;;;;;4.57;2.27;;;12.30;99.90;;;;;;5050288;28;20924;-77
2023/03/24 00:02:41;;;;;;;3.43;2.17;;;12.30;99.90;;;;;;5050266;28;20416;-77
2023/03/24 00:05:21;;;;;;;3.10;1.97;;;12.30;99.90;;;;;;5051245;28;20463;-77
2023/03/24 00:07:48;;;;;;;4.63;2.23;;;12.40;99.90;;;;;;5052826;28;20416;-76
2023/03/24 00:10:16;;;;;;;3.47;2.30;;;12.40;99.90;;;;;;5052371;28;20416;-77
2023/03/24 00:12:43;;;;;;;2.17;1.87;;;12.30;99.90;;;;;;5052773;28;20955;-76
2023/03/24 00:15:18;;;;;;;3.50;2.17;;;12.30;99.90;;;;;;5052129;28;20440;-76
2023/03/24 00:17:45;;;;;;;2.00;1.63;;;12.30;99.90;;;;;;5053005;28;20412;-77
2023/03/24 00:20:14;;;;;;;4.37;2.00;;;12.30;99.90;;;;;;5051642;28;20444;-77
2023/03/24 00:22:49;;;;;;;2.40;1.90;;;12.40;99.90;;;;;;5053246;28;20909;-77
2023/03/24 00:25:22;;;;;;;2.37;1.80;;;12.40;99.90;;;;;;5052658;28;20555;-77
2023/03/24 00:27:50;;;;;;;2.40;1.87;;;12.40;99.90;;;;;;5052363;28;20495;-77
2023/03/24 00:30:17;;;;;;;2.20;2.00;;;12.40;99.90;;;;;;5051501;28;20928;-77
2023/03/24 00:32:45;;;;;;;3.63;2.23;;;12.30;99.90;;;;;;5052262;28;20420;-76
2023/03/24 00:35:12;;;;;;;2.17;1.93;;;12.40;99.90;;;;;;5052091;28;20472;-77
2023/03/24 00:37:40;;;;;;;2.20;1.40;;;12.30;99.90;;;;;;5051076;28;20428;-77
2023/03/24 00:40:11;;;;;;;3.00;2.10;;;12.30;99.90;;;;;;5072407;28;20792;-77
2023/03/24 00:42:38;;;;;;;2.23;1.77;;;12.40;99.90;;;;;;5071202;28;20420;-77
2023/03/24 00:45:07;;;;;;;6.40;2.20;;;12.40;99.90;;;;;;5068120;28;20454;-77
2023/03/24 00:47:36;;;;;;;3.40;1.60;;;12.40;99.90;;;;;;5051635;28;20428;-77
2023/03/24 00:50:08;;;;;;;2.13;1.60;;;12.40;99.90;;;;;;5052138;28;20416;-77
2023/03/24 00:52:34;;;;;;;2.13;1.90;;;12.40;99.90;;;;;;5051054;28;20412;-76
2023/03/24 00:55:02;;;;;;;2.50;1.80;;;12.40;99.90;;;;;;5034229;28;20586;-77
2023/03/24 00:57:33;;;;;;;2.43;1.70;;;12.30;99.90;;;;;;5053013;28;20444;-77
2023/03/24 01:00:08;;;;;;;3.27;1.90;;;12.40;99.90;;;;;;5051665;28;20501;-77
2023/03/24 01:02:34;;;;;;;2.17;1.90;;;12.30;99.90;;;;;;5053645;28;20420;-78
2023/03/24 01:05:01;;;;;;;3.23;1.90;;;12.40;99.90;;;;;;5052690;28;20470;-78
2023/03/24 01:07:29;;;;;;;2.57;1.90;;;12.40;99.90;;;;;;5052656;28;20412;-77
2023/03/24 01:09:56;;;;;;;2.50;2.30;;;12.40;99.90;;;;;;5052541;28;20481;-77
2023/03/24 01:12:24;;;;;;;4.30;1.83;;;12.40;99.90;;;;;;5052755;28;20446;-77
2023/03/24 01:14:51;;;;;;;2.87;2.00;;;12.40;99.90;;;;;;5050793;28;20475;-77
2023/03/24 01:17:18;;;;;;;2.73;2.10;;;12.40;99.90;;;;;;5051688;28;20458;-77
2023/03/24 01:19:44;;;;;;;2.30;2.10;;;12.40;99.90;;;;;;5052524;28;20421;-77
2023/03/24 01:22:11;;;;;;;2.30;2.10;;;12.40;99.90;;;;;;5052359;28;20420;-77
2023/03/24 01:24:37;;;;;;;2.70;2.03;;;12.40;99.90;;;;;;5051903;28;20976;-76
2023/03/24 01:27:03;;;;;;;2.43;2.20;;;12.40;99.90;;;;;;5052777;28;20423;-77
2023/03/24 01:29:29;;;;;;;3.10;2.00;;;12.40;99.90;;;;;;5052486;28;20182;-77
2023/03/24 01:31:54;;;;;;;3.90;2.30;;;12.40;99.90;;;;;;5051708;28;20185;-76
2023/03/24 01:34:20;;;;;;;3.40;1.93;;;12.40;99.90;;;;;;5050178;28;20436;-77
2023/03/24 01:36:46;;;;;;;2.50;2.30;;;12.40;99.90;;;;;;5050952;28;20201;-76
2023/03/24 01:39:11;;;;;;;2.77;2.13;;;12.40;99.90;;;;;;5063509;28;20173;-76
2023/03/24 01:41:38;;;;;;;2.77;2.47;;;12.40;99.90;;;;;;5070488;28;20181;-76
2023/03/24 01:44:23;;;;;;;4.73;2.80;;;12.30;99.90;;;;;;5068966;28;20994;-77
2023/03/24 01:46:49;;;;;;;2.20;2.00;;;12.40;99.90;;;;;;5070427;28;20509;-76
2023/03/24 01:49:15;;;;;;;3.33;2.20;;;12.40;99.90;;;;;;5070531;28;20407;-76
2023/03/24 01:51:44;;;;;;;2.60;2.33;;;12.50;99.90;;;;;;5070695;28;20181;-76
2023/03/24 01:54:19;;;;;;;2.43;2.17;;;12.40;99.90;;;;;;5070120;28;20422;-76
2023/03/24 01:56:50;;;;;;;3.20;2.33;;;12.50;99.90;;;;;;5069154;28;20406;-76
2023/03/24 01:59:21;;;;;;;3.03;2.70;;;12.40;99.90;;;;;;5069118;28;20431;-77
2023/03/24 02:01:47;;;;;;;3.23;2.93;;;12.50;99.90;;;;;;5070749;28;20417;-76
2023/03/24 02:04:14;;;;;;;3.40;2.80;;;12.50;99.90;;;;;;5070156;28;20423;-76
2023/03/24 02:06:42;;;;;;;2.50;2.30;;;12.50;99.90;;;;;;5070557;28;20204;-76
2023/03/24 02:09:10;;;;;;;4.20;2.60;;;12.50;99.90;;;;;;5070039;28;20415;-76
2023/03/24 02:11:37;;;;;;;2.87;2.60;;;12.40;99.90;;;;;;5070121;28;20763;-76
2023/03/24 02:14:05;;;;;;;3.00;2.60;;;12.40;99.90;;;;;;5069971;28;20504;-76
2023/03/24 02:17:44;;;;;;;2.90;2.70;;;12.40;99.90;;;;;;5069023;28;20416;-77
2023/03/24 02:20:30;;;;;;;3.97;2.60;;;12.40;99.90;;;;;;5004050;28;20445;-76
2023/03/24 02:23:29;;;;;;;3.50;2.80;;;12.40;99.90;;;;;;5024268;28;20552;-76
2023/03/24 02:26:00;;;;;;;3.07;2.77;;;12.40;99.90;;;;;;5030329;28;20533;-77
2023/03/24 02:28:41;;;;;;;3.30;3.00;;;12.40;99.90;;;;;;5029760;28;20429;-76
2023/03/24 02:31:12;;;;;;;2.70;2.40;;;12.40;99.90;;;;;;5029543;28;20424;-76
2023/03/24 02:33:56;;;;;;;3.40;2.73;;;12.40;99.90;;;;;;5029854;28;20956;-77
2023/03/24 02:36:35;;;;;;;3.00;2.70;;;12.40;99.90;;;;;;5030185;28;20417;-77
2023/03/24 02:39:13;;;;;;;3.13;2.70;;;12.40;99.90;;;;;;5029569;28;20421;-77
2023/03/24 02:41:57;;;;;;;2.90;2.50;;;12.40;99.90;;;;;;5029821;28;20424;-77
2023/03/24 02:44:57;;;;;;;2.87;2.57;;;12.40;99.90;;;;;;5029610;28;20464;-77
2023/03/24 02:47:53;;;;;;;2.90;2.27;;;12.50;99.90;;;;;;5029878;28;20417;-77
2023/03/24 02:50:49;;;;;;;3.20;2.90;;;12.40;99.90;;;;;;5028557;28;20405;-77
2023/03/24 02:53:50;;;;;;;3.27;2.97;;;12.50;99.90;;;;;;5029668;28;20421;-77
2023/03/24 02:56:32;;;;;;;4.33;3.23;;;12.40;99.90;;;;;;5028691;28;20417;-77
2023/03/24 02:59:06;;;;;;;4.67;3.40;;;12.50;99.90;;;;;;5028607;28;20444;-77
2023/03/24 03:01:40;;;;;;;4.07;3.37;;;12.40;99.90;;;;;;5028745;28;20502;-77
2023/03/24 03:04:12;;;;;;;3.50;3.20;;;12.50;99.90;;;;;;5032197;28;20479;-76
2023/03/24 03:06:41;;;;;;;3.97;3.57;;;12.50;99.90;;;;;;5034702;28;20421;-77
2023/03/24 03:09:13;;;;;;;3.60;3.20;;;12.40;99.90;;;;;;5035147;28;20413;-77
2023/03/24 03:11:43;;;;;;;4.60;3.40;;;12.50;99.90;;;;;;5029857;28;20495;-76
2023/03/24 03:14:14;;;;;;;3.63;3.27;;;12.50;99.90;;;;;;5029455;28;20557;-76
2023/03/24 03:17:21;;;;;;;3.30;3.00;;;12.50;99.90;;;;;;5044406;28;20436;-76
2023/03/24 03:19:52;;;;;;;3.30;2.97;;;12.50;99.90;;;;;;5049084;28;20423;-76
2023/03/24 03:22:23;;;;;;;3.67;3.23;;;12.50;99.90;;;;;;5048467;28;20440;-77
2023/03/24 03:24:52;;;;;;;3.60;3.27;;;12.50;99.90;;;;;;5049244;28;20483;-77
2023/03/24 03:27:30;;;;;;;3.10;2.80;;;12.50;99.90;;;;;;5048041;28;20503;-77
2023/03/24 03:30:05;;;;;;;3.50;3.20;;;12.50;99.90;;;;;;5049367;28;20420;-77
2023/03/24 03:32:34;;;;;;;3.43;3.13;;;12.50;99.90;;;;;;5048190;28;20474;-77
2023/03/24 03:35:00;;;;;;;5.13;3.30;;;12.50;99.90;;;;;;5048672;28;20527;-77
2023/03/24 03:37:43;;;;;;;3.33;3.03;;;12.50;99.90;;;;;;5049160;28;20511;-77
2023/03/24 03:40:15;;;;;;;3.70;2.73;;;12.50;99.90;;;;;;5050451;28;20873;-77
2023/03/24 03:42:41;;;;;;;3.10;2.80;;;12.50;99.90;;;;;;5052088;28;20499;-77
2023/03/24 03:45:09;;;;;;;4.00;3.60;;;12.50;99.90;;;;;;5053159;28;20756;-77
2023/03/24 03:47:35;;;;;;;3.43;3.10;;;12.60;99.90;;;;;;5053022;28;20423;-77
2023/03/24 03:50:02;;;;;;;4.00;3.70;;;12.60;99.90;;;;;;5052966;28;20833;-77
2023/03/24 03:52:29;;;;;;;3.33;3.03;;;12.60;99.90;;;;;;5051581;28;20444;-77
2023/03/24 03:54:56;;;;;;;3.60;3.10;;;12.60;99.90;;;;;;5052599;28;20440;-77
2023/03/24 03:57:22;;;;;;;3.77;3.37;;;12.60;99.90;;;;;;5051449;28;20420;-77
2023/03/24 03:59:48;;;;;;;3.87;3.43;;;12.60;99.90;;;;;;5052244;28;20930;-77
2023/03/24 04:02:14;;;;;;;3.73;3.43;;;12.60;99.90;;;;;;5051888;28;20454;-77
2023/03/24 04:04:39;;;;;;;4.20;3.80;;;12.60;99.90;;;;;;5051431;28;20236;-77
2023/03/24 04:07:21;;;;;;;4.73;3.90;;;12.60;99.90;;;;;;5050220;28;20245;-77
2023/03/24 04:09:47;;;;;;;4.47;3.90;;;12.60;99.90;;;;;;5051614;28;20558;-77
2023/03/24 04:12:18;;;;;;;4.37;3.97;;;12.60;99.90;;;;;;5052199;28;20431;-76
2023/03/24 04:15:12;;;;;;;4.37;3.97;;;12.60;99.90;;;;;;5051463;28;20744;-77
2023/03/24 04:17:41;;;;;;;5.33;3.93;;;12.60;99.90;;;;;;5051437;28;20490;-77
2023/03/24 04:20:45;;;;;;;4.47;4.00;;;12.60;99.90;;;;;;5051336;28;21026;-77
2023/03/24 04:23:32;;;;;;;4.10;3.63;;;12.50;99.90;;;;;;5050121;28;20929;-77
2023/03/24 04:26:33;;;;;;;5.90;3.57;;;12.50;99.90;;;;;;5051584;28;20455;-77
2023/03/24 04:29:11;;;;;;;4.10;3.70;;;12.60;99.90;;;;;;5050247;28;20813;-76
2023/03/24 04:31:52;;;;;;;4.60;4.20;;;12.50;99.90;;;;;;5050403;28;20436;-76
2023/03/24 04:34:28;;;;;;;6.93;4.30;;;12.50;99.90;;;;;;5051080;28;20435;-77
2023/03/24 04:37:14;;;;;;;5.20;3.70;;;12.50;99.90;;;;;;5050938;28;20477;-76
2023/03/24 04:39:43;;;;;;;4.10;3.70;;;12.50;99.90;;;;;;5051145;28;20562;-76
2023/03/24 04:42:14;;;;;;;3.93;3.63;;;12.60;99.90;;;;;;5050420;28;20758;-77
2023/03/24 04:44:40;;;;;;;3.17;2.30;;;12.60;99.90;;;;;;5048660;28;20459;-76
2023/03/24 04:47:08;;;;;;;2.43;1.90;;;12.60;99.90;;;;;;5050830;28;20421;-76
2023/03/24 04:49:38;;;;;;;3.87;1.67;;;12.60;99.90;;;;;;5050995;28;20893;-77
2023/03/24 04:52:05;;;;;;;1.77;1.57;;;12.50;99.90;;;;;;5050778;28;20412;-77
2023/03/24 04:54:31;;;;;;;3.00;1.97;;;12.50;99.90;;;;;;5050744;28;20436;-76
2023/03/24 04:57:00;;;;;;;2.60;1.97;;;12.50;99.90;;;;;;5050597;28;20420;-77
2023/03/24 04:59:27;;;;;;;2.40;2.20;;;12.50;99.90;;;;;;5050809;28;20424;-77
2023/03/24 05:01:52;;;;;;;2.30;2.10;;;12.40;99.90;;;;;;5049670;28;20424;-77
2023/03/24 05:04:23;;;;;;;2.63;2.43;;;12.40;99.90;;;;;;5050580;28;20439;-76
2023/03/24 05:06:49;;;;;;;2.30;2.10;;;12.50;99.90;;;;;;5049334;28;20178;-77
2023/03/24 05:09:17;;;;;;;3.07;2.10;;;12.50;99.90;;;;;;5050993;28;20422;-77
2023/03/24 05:11:44;;;;;;;2.80;2.60;;;12.40;99.90;;;;;;5050511;28;20185;-76
2023/03/24 05:14:10;;;;;;;2.47;1.90;;;12.50;99.90;;;;;;5050474;28;21105;-77
2023/03/24 05:16:36;;;;;;;3.00;2.00;;;12.40;99.90;;;;;;5050764;28;20415;-77
2023/03/24 05:19:02;;;;;;;4.50;2.50;;;12.40;99.90;;;;;;5049108;28;20524;-77
2023/03/24 05:21:29;;;;;;;3.90;2.70;;;12.40;99.90;;;;;;5050533;28;20424;-77
2023/03/24 05:23:54;;;;;;;2.40;2.20;;;12.40;99.90;;;;;;5050162;28;20435;-76
2023/03/24 05:26:20;;;;;;;3.70;2.17;;;12.40;99.90;;;;;;5049540;28;20468;-76
2023/03/24 05:28:46;;;;;;;3.10;2.30;;;12.40;99.90;;;;;;5049276;28;20224;-76
2023/03/24 05:31:11;;;;;;;3.87;2.57;;;12.30;99.90;;;;;;5049874;28;20657;-76
2023/03/24 05:33:37;;;;;;;2.87;2.57;;;12.30;99.90;;;;;;5046875;28;20295;-76
2023/03/24 05:36:03;;;;;;;2.67;2.30;;;12.30;99.90;;;;;;5048606;28;20193;-74
2023/03/24 05:38:29;;;;;;;2.23;1.93;;;12.20;99.90;;;;;;5048518;28;20189;-74
2023/03/24 05:40:59;;;;;;;3.20;2.90;;;12.20;99.90;;;;;;5048484;28;20832;-73
2023/03/24 05:43:26;;;;;;;3.90;3.00;;;12.30;99.90;;;;;;5047951;28;20261;-73
2023/03/24 05:45:52;;;;;;;2.43;2.23;;;12.30;99.90;;;;;;5046923;28;20491;-74
2023/03/24 05:48:17;;;;;;;2.80;2.37;;;12.30;99.90;;;;;;5046887;28;20433;-74
2023/03/24 05:50:43;;;;;;;3.33;2.23;;;12.20;99.90;;;;;;5047841;28;20409;-74
2023/03/24 05:53:09;;;;;;;3.07;2.63;;;12.10;99.90;;;;;;5046338;28;20235;-74
2023/03/24 05:55:35;;;;;;;2.50;2.10;;;12.20;99.90;;;;;;5047956;28;20204;-74
2023/03/24 05:58:02;;;;;;;3.03;2.00;;;12.20;99.90;;;;;;5045663;28;20194;-74
2023/03/24 06:00:29;;;;;;;3.10;2.40;;;12.20;99.90;;;;;;5046240;28;20887;-74
2023/03/24 06:02:55;;;;;;;3.73;2.20;;;12.20;99.90;;;;;;5043826;28;20436;-77
2023/03/24 06:05:21;;;;;;;2.97;2.60;;;12.20;99.90;;;;;;5045099;28;20972;-77
2023/03/24 06:07:47;;;;;;;3.07;2.20;;;12.10;99.90;;;;;;5045706;28;20432;-76
2023/03/24 06:10:13;;;;;;;4.40;2.50;;;12.00;99.90;;;;;;5047495;28;20420;-77
2023/03/24 06:12:39;;;;;;;4.00;2.13;;;12.00;99.90;;;;;;5045508;28;20271;-77
2023/03/24 06:15:07;;;;;;;3.77;2.27;;;11.90;99.90;;;;;;5042757;28;20475;-78
2023/03/24 06:17:33;;;;;;;5.27;2.43;;;11.90;99.90;;;;;;5047022;28;20448;-77
2023/03/24 06:20:04;;;;;;;3.27;2.50;;;12.00;99.90;;;;;;5046982;28;20415;-77
2023/03/24 06:22:32;;;;;;;2.93;2.60;;;12.00;99.90;;;;;;5046538;28;20768;-78
2023/03/24 06:24:57;;;;;;;3.83;2.50;;;12.10;99.90;;;;;;5047096;28;20472;-78
2023/03/24 06:27:29;;;;;;;5.60;2.47;;;12.10;99.90;;;;;;5046078;28;20815;-77
2023/03/24 06:29:58;;;;;;;3.67;2.90;;;12.20;99.90;;;;;;5055142;28;20193;-77
2023/03/24 06:32:25;;;;;;;3.90;2.50;;;12.10;99.90;;;;;;5044276;28;20917;-77
2023/03/24 06:34:51;;;;;;;4.97;2.33;;;12.10;99.90;;;;;;5045952;28;20444;-77
2023/03/24 06:37:17;;;;;;;3.17;2.10;;;12.00;99.90;;;;;;5047002;28;20515;-78
2023/03/24 06:39:45;;;;;;;4.17;2.07;;;12.00;99.90;;;;;;5048908;28;20431;-77
2023/03/24 06:42:11;;;;;;;4.60;2.40;;;11.90;99.90;;;;;;5045706;28;20758;-78
2023/03/24 06:44:36;;;;;;;3.03;2.00;;;11.90;99.90;;;;;;5045972;28;20456;-78
2023/03/24 06:47:03;;;;;;;2.77;2.17;;;11.80;99.90;;;;;;5047966;28;20466;-77
2023/03/24 06:49:29;;;;;;;3.33;2.30;;;11.80;99.90;;;;;;5046464;28;20209;-78
2023/03/24 06:51:55;;;;;;;5.30;2.43;;;11.70;99.90;;;;;;5045521;28;20459;-78
2023/03/24 06:54:21;;;;;;;3.50;2.53;;;11.70;99.90;;;;;;5045946;28;20452;-76
2023/03/24 06:56:47;;;;;;;3.90;2.30;;;11.70;99.90;;;;;;5045864;28;20280;-77
2023/03/24 06:59:12;;;;;;;3.20;2.10;;;11.80;99.90;;;;;;5046308;28;20500;-76
2023/03/24 07:01:38;;;;;;;3.37;2.40;;;11.80;99.90;;;;;;5047662;28;20462;-77
2023/03/24 07:04:04;;;;;;;2.40;2.07;;;11.70;99.90;;;;;;5044902;28;20213;-77
2023/03/24 07:06:32;;;;;;;4.37;2.60;;;11.80;99.90;;;;;;5045617;28;20467;-77
2023/03/24 07:08:58;;;;;;;3.30;2.20;;;11.80;99.90;;;;;;5047369;28;20443;-77
2023/03/24 07:11:24;;;;;;;6.83;2.20;;;11.80;99.90;;;;;;5027593;28;20516;-77
2023/03/24 07:13:50;;;;;;;5.07;2.30;;;11.80;99.90;;;;;;5043475;28;20554;-79
2023/03/24 07:16:15;;;;;;;5.43;1.83;;;11.80;99.90;;;;;;5050109;28;20625;-77
2023/03/24 07:18:41;;;;;;;2.93;2.00;;;11.80;99.90;;;;;;5047695;28;20189;-76
2023/03/24 07:21:07;;;;;;;4.23;2.30;;;11.90;99.90;;;;;;5048953;28;20212;-77
2023/03/24 07:23:33;;;;;;;8.97;2.20;;;11.90;99.90;;;;;;5052343;28;21010;-77
2023/03/24 07:25:59;;;;;;;4.17;2.13;;;11.90;99.90;;;;;;5052319;28;20447;-77
2023/03/24 07:28:25;;;;;;;5.60;1.87;;;11.90;99.90;;;;;;5043466;28;20436;-77
2023/03/24 07:30:50;;;;;;;6.37;1.77;;;11.90;99.90;;;;;;5051095;28;20193;-76
2023/03/24 07:33:16;;;;;;;6.73;1.90;;;11.90;99.90;;;;;;5050126;28;20209;-76
2023/03/24 07:35:42;;;;;;;5.40;2.10;;;12.00;99.90;;;;;;5051860;28;20181;-77
2023/03/24 07:38:09;;;;;;;6.50;1.67;;;12.00;99.90;;;;;;5044973;28;20197;-76
2023/03/24 07:40:35;;;;;;;5.97;1.80;;;12.10;99.90;;;;;;5022935;28;20619;-77
2023/03/24 07:43:04;;;;;;;4.83;1.33;;;12.10;99.90;;;;;;5026466;28;20412;-76
2023/03/24 07:45:30;;;;;;;5.57;1.67;;;12.00;99.90;;;;;;5032877;28;20453;-76
2023/03/24 07:48:00;;;;;;;10.07;1.87;;;12.20;99.90;;;;;;5014342;28;20409;-77
2023/03/24 07:50:27;;;;;;;5.77;1.43;;;12.30;99.90;;;;;;5030897;28;20440;-77
2023/03/24 07:52:53;;;;;;;4.50;1.60;;;12.40;99.90;;;;;;5032951;28;20810;-78
2023/03/24 07:55:19;;;;;;;3.23;1.37;;;12.50;99.90;;;;;;5031260;28;20436;-77
2023/03/24 07:57:46;;;;;;;6.50;1.97;;;12.60;99.90;;;;;;5049333;28;20189;-77
2023/03/24 08:00:19;;;;;;;6.77;1.97;;;12.70;99.90;;;;;;5051895;28;20223;-76
2023/03/24 08:02:47;;;;;;;6.53;1.80;;;12.80;99.90;;;;;;5052308;28;20412;-76
2023/03/24 08:05:14;;;;;;;4.70;2.00;;;12.90;99.90;;;;;;5052027;28;20855;-76
2023/03/24 08:07:41;;;;;;;3.23;1.20;;;12.90;99.90;;;;;;5051786;28;21143;-77
2023/03/24 08:10:09;;;;;;;3.77;1.67;;;13.10;99.90;;;;;;5051982;28;20965;-77
2023/03/24 08:12:35;;;;;;;5.93;2.00;;;13.10;99.90;;;;;;5052991;28;20438;-77
2023/03/24 08:15:01;;;;;;;6.60;2.10;;;13.20;99.90;;;;;;5034171;28;20444;-77
2023/03/24 08:17:26;;;;;;;5.07;1.80;;;13.30;99.90;;;;;;5034058;28;20425;-77
2023/03/24 08:19:52;;;;;;;5.93;2.00;;;13.30;99.90;;;;;;5050308;28;20424;-77
2023/03/24 08:22:18;;;;;;;8.63;2.43;;;13.40;99.90;;;;;;5051491;28;20178;-77
2023/03/24 08:24:43;;;;;;;5.13;1.50;;;13.40;99.90;;;;;;5047634;28;20218;-78
2023/03/24 08:27:09;;;;;;;2.70;1.20;;;13.30;99.90;;;;;;5075021;28;20678;-77
2023/03/24 08:29:35;;;;;;;9.27;1.80;;;13.30;99.90;;;;;;5049673;28;20181;-77
2023/03/24 08:32:01;;;;;;;6.40;1.57;;;13.30;99.90;;;;;;5049361;28;20193;-78
2023/03/24 08:34:27;;;;;;;4.70;1.37;;;13.40;99.90;;;;;;5030551;28;21341;-77
2023/03/24 08:36:52;;;;;;;5.73;2.40;;;13.40;99.90;;;;;;5050702;28;20413;-77
2023/03/24 08:39:19;;;;;;;4.87;1.67;;;13.30;99.90;;;;;;5048866;28;20514;-77
2023/03/24 08:41:45;;;;;;;7.37;1.80;;;13.30;99.90;;;;;;5048222;28;20192;-77
2023/03/24 08:44:11;;;;;;;7.37;1.70;;;13.40;99.90;;;;;;5049234;28;20448;-76
2023/03/24 08:46:36;;;;;;;3.87;1.53;;;13.40;99.90;;;;;;5050256;28;20965;-77
2023/03/24 08:49:03;;;;;;;5.20;1.50;;;13.40;99.90;;;;;;5047904;28;20677;-77
2023/03/24 08:51:29;;;;;;;5.53;1.53;;;13.50;99.90;;;;;;5050094;28;20189;-78
2023/03/24 08:53:54;;;;;;;9.20;2.10;;;13.40;99.90;;;;;;5050003;28;20424;-77
2023/03/24 08:56:20;;;;;;;6.50;2.00;;;13.30;99.90;;;;;;5050188;28;20629;-77
2023/03/24 08:58:52;;;;;;;9.13;1.70;;;13.20;99.90;;;;;;5049681;28;20193;-77
2023/03/24 09:01:19;;;;;;;9.67;2.10;;;13.20;99.90;;;;;;5050043;28;20912;-77
2023/03/24 09:03:45;;;;;;;4.40;1.83;;;13.20;99.90;;;;;;5050021;28;20839;-77
2023/03/24 09:06:11;;;;;;;4.07;1.50;;;13.20;99.90;;;;;;5049925;28;20452;-77
2023/03/24 09:08:37;;;;;;;6.60;1.93;;;13.30;99.90;;;;;;5049666;28;20420;-77
2023/03/24 09:11:04;;;;;;;7.97;2.00;;;13.30;99.90;;;;;;5049840;28;20419;-78
2023/03/24 09:13:29;;;;;;;6.60;1.90;;;13.40;99.90;;;;;;5049496;28;20210;-77
2023/03/24 09:16:03;;;;;;;4.70;1.97;;;13.40;99.90;;;;;;5050046;28;20412;-77
2023/03/24 09:18:29;;;;;;;4.40;2.53;;;13.40;99.90;;;;;;5049590;28;20700;-77
2023/03/24 09:20:55;;;;;;;5.87;2.40;;;13.40;99.90;;;;;;5049043;28;20444;-78
2023/03/24 09:23:21;;;;;;;6.00;1.90;;;13.40;99.90;;;;;;5045537;28;20212;-77
2023/03/24 09:25:49;;;;;;;3.47;2.03;;;13.40;99.90;;;;;;5048020;28;20275;-77
2023/03/24 09:28:15;;;;;;;7.33;2.27;;;13.50;99.90;;;;;;5049068;28;20458;-77
2023/03/24 09:30:41;;;;;;;6.87;2.60;;;13.60;99.90;;;;;;5048607;28;20838;-77
2023/03/24 09:33:07;;;;;;;5.20;3.10;;;13.70;99.90;;;;;;5048744;28;20424;-77
2023/03/24 09:35:33;;;;;;;4.13;2.00;;;13.80;99.90;;;;;;5047964;28;20835;-76
2023/03/24 09:37:58;;;;;;;9.80;2.57;;;13.80;99.90;;;;;;5048217;28;20182;-77
2023/03/24 09:40:30;;;;;;;7.57;3.00;;;13.80;99.90;;;;;;5047471;28;20432;-77
2023/03/24 09:43:29;;;;;;;6.63;2.27;;;13.70;99.90;;;;;;5044575;28;20611;-76
2023/03/24 09:45:57;;;;;;;6.60;2.30;;;13.60;99.90;;;;;;5045326;28;20459;-77
2023/03/24 09:48:38;;;;;;;7.23;2.37;;;13.60;99.90;;;;;;5048647;28;20909;-75
2023/03/24 09:51:17;;;;;;;5.93;2.47;;;13.60;99.90;;;;;;5051561;28;20849;-77
2023/03/24 09:54:00;;;;;;;6.50;2.20;;;13.60;99.90;;;;;;5034290;28;20447;-77
2023/03/24 09:56:28;;;;;;;6.87;2.00;;;13.70;99.90;;;;;;5046239;28;20420;-77
2023/03/24 09:59:17;;;;;;;5.90;2.47;;;13.70;99.90;;;;;;5045990;28;20417;-76
2023/03/24 10:01:45;;;;;;;4.10;1.73;;;13.70;99.90;;;;;;5031460;28;20504;-77
2023/03/24 10:04:31;;;;;;;7.97;2.33;;;13.60;99.90;;;;;;5037718;28;20447;-77
2023/03/24 10:07:06;;;;;;;6.67;1.87;;;13.70;99.90;;;;;;5049113;28;20433;-76
2023/03/24 10:09:34;;;;;;;11.17;1.60;;;13.80;99.90;;;;;;5045899;28;20408;-76
2023/03/24 10:12:20;;;;;;;8.80;2.67;;;13.90;99.90;;;;;;5049171;28;20456;-76
2023/03/24 10:15:10;;;;;;;8.23;1.83;;;14.00;99.90;;;;;;5048673;28;20432;-76
2023/03/24 10:17:59;;;;;;;5.27;2.67;;;14.10;99.90;;;;;;5047286;28;20416;-77
2023/03/24 10:20:40;;;;;;;7.17;2.00;;;14.00;99.90;;;;;;5047120;28;20495;-76
2023/03/24 10:23:43;;;;;;;5.63;1.70;;;14.00;99.90;;;;;;5048629;28;20408;-76
2023/03/24 10:26:32;;;;;;;4.17;2.00;;;13.90;99.90;;;;;;5045712;28;20456;-76
2023/03/24 10:29:10;;;;;;;3.73;1.47;;;13.70;99.90;;;;;;5044467;28;20559;-77
2023/03/24 10:31:38;;;;;;;5.23;1.70;;;13.70;99.90;;;;;;5048783;28;20489;-76
2023/03/24 10:34:08;;;;;;;8.03;1.80;;;13.60;99.90;;;;;;5030414;28;20523;-76
2023/03/24 10:36:37;;;;;;;3.90;1.87;;;13.70;99.90;;;;;;5048995;28;20412;-77
2023/03/24 10:39:03;;;;;;;5.73;1.80;;;13.70;99.90;;;;;;5048726;28;20477;-77
2023/03/24 10:41:30;;;;;;;7.97;1.67;;;13.80;99.90;;;;;;5049032;28;20421;-76
2023/03/24 10:43:56;;;;;;;11.70;2.33;;;13.80;99.90;;;;;;5048261;28;20496;-76
2023/03/24 10:46:28;;;;;;;5.70;1.83;;;13.90;99.90;;;;;;5050332;28;20882;-76
2023/03/24 10:49:14;;;;;;;4.30;2.03;;;14.00;99.90;;;;;;5030256;28;20413;-77
2023/03/24 10:51:47;;;;;;;7.30;2.10;;;13.90;99.90;;;;;;5028624;28;20445;-76
2023/03/24 10:54:20;;;;;;;4.30;2.17;;;13.80;99.90;;;;;;5030026;28;20475;-77
2023/03/24 10:57:05;;;;;;;5.70;1.77;;;13.80;99.90;;;;;;5028988;28;20417;-76
2023/03/24 10:59:37;;;;;;;4.10;1.70;;;13.90;99.90;;;;;;5039326;28;20409;-77
2023/03/24 11:02:12;;;;;;;4.67;1.90;;;14.10;99.90;;;;;;5032258;28;20444;-76
2023/03/24 11:04:42;;;;;;;6.77;2.00;;;14.10;99.90;;;;;;5048049;28;20481;-75
2023/03/24 11:07:20;;;;;;;5.23;1.80;;;14.20;99.90;;;;;;5050465;28;20421;-76
2023/03/24 11:10:06;;;;;;;4.33;1.87;;;14.20;99.90;;;;;;5050124;28;20763;-77
2023/03/24 11:12:35;;;;;;;6.30;1.60;;;14.20;99.90;;;;;;5048220;28;20447;-77
2023/03/24 11:15:18;;;;;;;4.10;1.43;;;14.20;99.90;;;;;;5049197;28;20436;-77
2023/03/24 11:17:46;;;;;;;3.90;1.80;;;14.20;99.90;;;;;;5047767;28;20416;-77
2023/03/24 11:20:24;;;;;;;5.57;1.83;;;14.10;99.90;;;;;;5048278;28;20512;-77
2023/03/24 11:23:03;;;;;;;6.40;1.70;;;14.00;99.90;;;;;;5047415;28;20426;-77
2023/03/24 11:25:32;;;;;;;6.30;2.07;;;14.00;99.90;;;;;;5048126;28;20452;-77
2023/03/24 11:28:07;;;;;;;5.27;1.90;;;14.00;99.90;;;;;;5049061;28;20435;-77
2023/03/24 11:30:45;;;;;;;4.40;1.67;;;14.10;99.90;;;;;;5047889;28;20563;-77
2023/03/24 11:33:32;;;;;;;9.50;1.80;;;14.10;99.90;;;;;;5047251;28;20940;-77
2023/03/24 11:35:59;;;;;;;6.10;2.20;;;14.20;99.90;;;;;;5046063;28;20411;-77
2023/03/24 11:38:30;;;;;;;7.80;2.10;;;14.40;99.90;;;;;;5047110;28;20419;-77
2023/03/24 11:40:58;;;;;;;3.10;1.73;;;14.50;99.90;;;;;;5049922;28;20955;-77
2023/03/24 11:43:26;;;;;;;6.53;2.30;;;14.60;99.90;;;;;;5049033;28;20872;-77
2023/03/24 11:46:15;;;;;;;3.33;2.50;;;14.80;99.90;;;;;;5047130;28;20998;-76
2023/03/24 11:48:54;;;;;;;7.23;1.97;;;14.90;99.90;;;;;;5047347;28;20448;-77
2023/03/24 11:51:34;;;;;;;7.30;1.80;;;14.90;99.90;;;;;;5047392;28;20423;-77
2023/03/24 11:54:05;;;;;;;8.00;2.40;;;14.90;99.90;;;;;;5047807;28;20550;-76
2023/03/24 11:56:44;;;;;;;7.40;2.50;;;14.80;99.90;;;;;;5048022;28;20417;-77
2023/03/24 11:59:44;;;;;;;5.47;2.20;;;14.80;99.90;;;;;;5047730;28;21174;-77
2023/03/24 12:02:23;;;;;;;3.43;2.07;;;14.80;99.90;;;;;;5050894;28;20423;-77
2023/03/24 12:05:30;;;;;;;6.20;2.23;;;14.80;99.90;;;;;;5051145;28;20517;-77
2023/03/24 12:08:00;;;;;;;5.40;2.53;;;14.80;99.90;;;;;;4992731;28;20433;-77
2023/03/24 12:10:58;;;;;;;7.70;2.47;;;14.80;99.90;;;;;;5038083;28;20822;-77
2023/03/24 12:13:37;;;;;;;4.30;1.93;;;14.80;99.90;;;;;;5050917;28;20467;-77
2023/03/24 12:16:12;;;;;;;6.23;1.77;;;14.70;99.90;;;;;;5051253;28;20439;-76
2023/03/24 12:18:57;;;;;;;3.20;1.83;;;14.80;99.90;;;;;;5051007;28;20404;-76
2023/03/24 12:21:43;;;;;;;2.63;1.50;;;14.70;99.90;;;;;;5050329;28;20420;-77
2023/03/24 12:24:35;;;;;;;3.70;1.77;;;14.80;99.90;;;;;;5049578;28;20523;-77
2023/03/24 12:27:01;;;;;;;10.37;1.90;;;14.80;99.90;;;;;;5050813;28;20420;-77
2023/03/24 12:30:04;;;;;;;5.80;2.50;;;15.00;99.90;;;;;;5051154;28;20409;-77
2023/03/24 12:32:53;;;;;;;4.97;2.30;;;15.00;99.90;;;;;;5063783;28;20177;-77
2023/03/24 12:35:19;;;;;;;6.77;2.00;;;14.90;99.90;;;;;;5051636;28;20474;-77
2023/03/24 12:38:08;;;;;;;4.93;2.33;;;14.80;99.90;;;;;;5049243;28;20404;-77
2023/03/24 12:41:22;;;;;;;6.53;2.10;;;14.80;99.90;;;;;;5048294;28;20174;-77
2023/03/24 12:44:02;;;;;;;7.53;2.00;;;14.80;99.90;;;;;;5035468;28;20439;-77
2023/03/24 12:47:00;;;;;;;4.90;2.67;;;14.80;99.90;;;;;;5048458;28;20470;-76
2023/03/24 12:49:38;;;;;;;8.33;2.33;;;14.90;99.90;;;;;;5019102;28;20913;-77
2023/03/24 12:52:13;;;;;;;3.53;1.97;;;14.90;99.90;;;;;;5031245;28;20778;-77
2023/03/24 12:54:51;;;;;;;5.60;2.80;;;15.00;99.90;;;;;;5046312;28;20921;-77
2023/03/24 12:57:22;;;;;;;7.47;2.40;;;15.00;99.90;;;;;;5045902;28;20420;-77
2023/03/24 13:00:00;;;;;;;6.20;1.80;;;14.90;99.90;;;;;;5048621;28;20400;-77
2023/03/24 13:02:45;;;;;;;7.70;2.10;;;14.90;99.90;;;;;;5048717;28;20404;-76
2023/03/24 13:05:19;;;;;;;7.23;2.63;;;14.90;99.90;;;;;;5046285;28;20456;-77
2023/03/24 13:07:52;;;;;;;5.63;1.80;;;14.90;99.90;;;;;;5048199;28;20476;-76
2023/03/24 13:10:26;;;;;;;2.63;1.47;;;14.80;99.90;;;;;;5048866;28;20920;-77